Time;durP1;ratioP1;P1;durP2;ratioP2;P2;SDS_P1;SDS_P2;PMS_P1;PMS_P2;Temp;Humidity;BMP_temperature;BMP_pressure;BME280_temperature;BME280_humidity;BME280_pressure;Samples;Min_cycle;Max_cycle;Signal;HPM_P1;HPM_P2
2024/01/17 00:01:17;;;;;;;3.95;0.93;;;;;;;;;;5097648;28;20047;-83
2024/01/17 00:03:50;;;;;;;5.50;1.10;;;;;;;;;;5095323;28;20044;-82
2024/01/17 00:06:21;;;;;;;2.85;0.90;;;;;;;;;;5060503;28;20052;-84
2024/01/17 00:08:50;;;;;;;14.82;1.30;;;;;;;;;;5094428;28;20048;-82
2024/01/17 00:11:21;;;;;;;4.05;0.90;;;;;;;;;;5074284;28;20076;-84
2024/01/17 00:13:51;;;;;;;6.40;1.27;;;;;;;;;;5069937;28;20082;-82
2024/01/17 00:16:23;;;;;;;11.35;1.10;;;;;;;;;;5074075;28;20048;-82
2024/01/17 00:18:55;;;;;;;6.15;1.20;;;;;;;;;;5055974;28;20052;-81
2024/01/17 00:21:26;;;;;;;5.32;0.82;;;;;;;;;;5073840;28;20521;-81
2024/01/17 00:23:56;;;;;;;2.53;0.93;;;;;;;;;;5056564;28;20041;-82
2024/01/17 00:26:26;;;;;;;4.18;0.90;;;;;;;;;;5073729;28;20418;-84
2024/01/17 00:28:57;;;;;;;3.85;1.08;;;;;;;;;;5084601;28;20050;-84
2024/01/17 00:31:26;;;;;;;6.38;1.13;;;;;;;;;;5067076;28;20409;-83
2024/01/17 00:33:57;;;;;;;4.65;1.10;;;;;;;;;;5071506;28;20059;-82
2024/01/17 00:36:27;;;;;;;4.57;1.20;;;;;;;;;;5112613;28;20478;-82
2024/01/17 00:38:57;;;;;;;6.85;1.08;;;;;;;;;;5112993;28;20051;-82
2024/01/17 00:41:26;;;;;;;2.40;1.27;;;;;;;;;;5102960;28;20064;-82
2024/01/17 00:43:58;;;;;;;4.72;1.05;;;;;;;;;;5093758;28;20047;-83
2024/01/17 00:46:31;;;;;;;2.88;0.90;;;;;;;;;;5092331;28;20063;-82
2024/01/17 00:49:01;;;;;;;5.78;1.50;;;;;;;;;;5092649;28;20055;-82
2024/01/17 00:51:31;;;;;;;4.47;0.88;;;;;;;;;;5056782;28;20052;-83
2024/01/17 00:54:01;;;;;;;3.13;0.95;;;;;;;;;;5057913;28;20117;-83
2024/01/17 00:56:34;;;;;;;4.80;1.00;;;;;;;;;;5091573;28;20063;-82
2024/01/17 00:59:05;;;;;;;4.15;0.93;;;;;;;;;;5093164;28;20051;-83
2024/01/17 01:01:35;;;;;;;2.70;0.98;;;;;;;;;;5074837;28;20398;-81
2024/01/17 01:04:05;;;;;;;3.47;1.23;;;;;;;;;;5092837;28;20084;-83
2024/01/17 01:06:35;;;;;;;4.97;1.13;;;;;;;;;;5077138;28;20056;-83
2024/01/17 01:09:05;;;;;;;4.80;1.08;;;;;;;;;;5093010;28;20055;-83
2024/01/17 01:11:36;;;;;;;5.78;0.95;;;;;;;;;;5094481;28;20044;-83
2024/01/17 01:14:08;;;;;;;4.53;1.20;;;;;;;;;;5094862;28;20063;-81
2024/01/17 01:16:38;;;;;;;6.80;0.90;;;;;;;;;;5111972;28;20031;-82
2024/01/17 01:19:08;;;;;;;3.25;1.10;;;;;;;;;;5095367;28;20055;-85
2024/01/17 01:21:42;;;;;;;5.18;1.20;;;;;;;;;;5112807;28;20047;-83
2024/01/17 01:24:12;;;;;;;2.13;1.20;;;;;;;;;;5086463;28;20056;-83
2024/01/17 01:26:42;;;;;;;5.07;1.20;;;;;;;;;;5076955;28;20056;-84
2024/01/17 01:29:14;;;;;;;6.25;1.05;;;;;;;;;;5066356;28;20048;-87
2024/01/17 01:31:44;;;;;;;3.53;1.05;;;;;;;;;;5063023;28;20052;-87
2024/01/17 01:34:15;;;;;;;4.22;0.93;;;;;;;;;;5083039;28;20051;-87
2024/01/17 01:36:46;;;;;;;2.63;1.00;;;;;;;;;;5076273;28;20052;-84
2024/01/17 01:39:23;;;;;;;6.07;1.10;;;;;;;;;;5077467;28;20036;-86
2024/01/17 01:41:56;;;;;;;6.30;1.00;;;;;;;;;;5092232;28;20067;-85
2024/01/17 01:44:28;;;;;;;6.05;1.50;;;;;;;;;;5094362;28;20499;-85
2024/01/17 01:46:59;;;;;;;4.32;1.35;;;;;;;;;;5095464;28;20052;-84
2024/01/17 01:49:30;;;;;;;7.43;1.52;;;;;;;;;;5092712;28;20063;-84
2024/01/17 01:52:02;;;;;;;2.53;1.10;;;;;;;;;;5093532;28;20075;-85
2024/01/17 01:54:34;;;;;;;4.00;1.30;;;;;;;;;;5076130;28;20044;-85
2024/01/17 01:57:06;;;;;;;5.50;1.08;;;;;;;;;;5075858;28;20056;-84
2024/01/17 01:59:37;;;;;;;3.72;1.52;;;;;;;;;;5093504;28;20521;-85
2024/01/17 02:02:09;;;;;;;2.95;1.10;;;;;;;;;;5091910;28;20402;-84
2024/01/17 02:04:39;;;;;;;5.35;1.50;;;;;;;;;;5093319;28;20059;-84
2024/01/17 02:07:13;;;;;;;4.57;1.25;;;;;;;;;;5094651;28;20051;-88
2024/01/17 02:09:44;;;;;;;2.47;1.10;;;;;;;;;;5076318;28;20044;-84
2024/01/17 02:12:15;;;;;;;4.60;1.10;;;;;;;;;;5094083;28;20040;-84
2024/01/17 02:14:45;;;;;;;6.25;1.30;;;;;;;;;;5074708;28;20052;-86
2024/01/17 02:17:16;;;;;;;4.13;1.10;;;;;;;;;;5073974;28;20048;-83
2024/01/17 02:19:47;;;;;;;3.47;1.13;;;;;;;;;;5091812;28;20036;-82
2024/01/17 02:22:17;;;;;;;6.25;1.40;;;;;;;;;;5072969;28;20443;-82
2024/01/17 02:24:47;;;;;;;5.55;1.20;;;;;;;;;;5092387;28;20055;-83
2024/01/17 02:27:17;;;;;;;3.95;1.35;;;;;;;;;;5094366;28;20051;-85
2024/01/17 02:29:48;;;;;;;2.03;1.00;;;;;;;;;;5075976;28;20405;-84
2024/01/17 02:32:19;;;;;;;9.50;2.35;;;;;;;;;;5059220;28;20056;-86
2024/01/17 02:34:50;;;;;;;3.42;0.85;;;;;;;;;;5092696;28;20044;-85
2024/01/17 02:37:20;;;;;;;14.45;1.10;;;;;;;;;;5076476;28;20441;-86
2024/01/17 02:39:50;;;;;;;2.83;1.00;;;;;;;;;;5057910;28;20056;-85
2024/01/17 02:42:20;;;;;;;4.50;1.10;;;;;;;;;;5075019;28;20052;-85
2024/01/17 02:44:51;;;;;;;6.85;1.40;;;;;;;;;;5093195;28;20051;-87
2024/01/17 02:47:20;;;;;;;6.35;1.33;;;;;;;;;;5057947;28;20059;-86
2024/01/17 02:49:51;;;;;;;2.50;1.15;;;;;;;;;;5062562;28;20474;-87
2024/01/17 02:52:21;;;;;;;4.90;1.00;;;;;;;;;;5077475;28;20055;-86
2024/01/17 02:54:51;;;;;;;3.83;1.23;;;;;;;;;;5077511;28;20052;-84
2024/01/17 02:57:21;;;;;;;4.90;1.25;;;;;;;;;;5097261;28;20044;-85
2024/01/17 02:59:51;;;;;;;3.58;0.90;;;;;;;;;;5079008;28;20052;-85
2024/01/17 03:02:22;;;;;;;11.43;1.70;;;;;;;;;;5067769;28;20059;-85
2024/01/17 03:04:52;;;;;;;5.55;1.20;;;;;;;;;;5076058;28;20053;-86
2024/01/17 03:07:23;;;;;;;6.53;1.30;;;;;;;;;;5074258;28;20495;-87
2024/01/17 03:09:52;;;;;;;3.70;1.15;;;;;;;;;;5074225;28;20064;-85
2024/01/17 03:12:23;;;;;;;3.75;0.90;;;;;;;;;;5076966;28;20494;-85
2024/01/17 03:14:53;;;;;;;3.63;1.10;;;;;;;;;;5074080;28;20483;-85
2024/01/17 03:17:23;;;;;;;7.68;1.20;;;;;;;;;;5074153;28;20049;-85
2024/01/17 03:19:54;;;;;;;8.60;1.02;;;;;;;;;;5075794;28;20402;-86
2024/01/17 03:22:25;;;;;;;3.80;0.98;;;;;;;;;;5075625;28;20049;-85
2024/01/17 03:24:56;;;;;;;3.30;1.00;;;;;;;;;;5074830;28;20491;-87
2024/01/17 03:27:26;;;;;;;5.82;1.13;;;;;;;;;;5059264;28;20395;-86
2024/01/17 03:29:56;;;;;;;5.15;1.30;;;;;;;;;;5076033;28;20049;-88
2024/01/17 03:32:27;;;;;;;4.10;1.33;;;;;;;;;;5075975;28;20456;-85
2024/01/17 03:34:57;;;;;;;2.53;1.20;;;;;;;;;;5074196;28;20052;-86
2024/01/17 03:37:28;;;;;;;;;;;;;;;;;;5076663;28;20036;-85
2024/01/17 03:39:58;;;;;;;4.57;1.20;;;;;;;;;;5073986;28;20271;-85
2024/01/17 03:42:28;;;;;;;4.72;1.00;;;;;;;;;;5073873;28;20056;-85
2024/01/17 03:45:01;;;;;;;4.57;1.35;;;;;;;;;;5058603;28;20053;-87
2024/01/17 03:47:35;;;;;;;2.97;1.30;;;;;;;;;;5074340;28;20228;-87
2024/01/17 03:50:06;;;;;;;5.07;1.33;;;;;;;;;;5074350;28;20049;-84
2024/01/17 03:52:36;;;;;;;3.20;1.50;;;;;;;;;;5074700;28;20041;-86
2024/01/17 03:55:06;;;;;;;5.10;1.98;;;;;;;;;;5075925;28;20399;-87
2024/01/17 03:57:37;;;;;;;5.22;1.42;;;;;;;;;;5057010;28;20048;-85
2024/01/17 04:00:10;;;;;;;10.45;2.10;;;;;;;;;;5075187;28;20056;-85
2024/01/17 04:02:41;;;;;;;7.28;1.45;;;;;;;;;;5074154;28;20036;-86
2024/01/17 04:05:12;;;;;;;4.40;1.55;;;;;;;;;;5073098;28;20073;-87
2024/01/17 04:07:42;;;;;;;3.97;1.65;;;;;;;;;;5075478;28;20055;-84
2024/01/17 04:10:13;;;;;;;4.65;1.40;;;;;;;;;;5057134;28;20052;-86
2024/01/17 04:12:43;;;;;;;6.53;1.13;;;;;;;;;;5057517;28;20532;-84
2024/01/17 04:15:13;;;;;;;3.58;1.38;;;;;;;;;;5073321;28;20059;-85
2024/01/17 04:17:43;;;;;;;7.50;1.48;;;;;;;;;;5072075;28;20063;-85
2024/01/17 04:20:14;;;;;;;5.03;1.30;;;;;;;;;;5072871;28;20517;-84
2024/01/17 04:22:44;;;;;;;3.90;1.23;;;;;;;;;;5074539;28;20053;-85
2024/01/17 04:25:14;;;;;;;2.97;1.40;;;;;;;;;;5074877;28;20052;-85
2024/01/17 04:27:44;;;;;;;6.72;1.52;;;;;;;;;;5056871;28;20510;-85
2024/01/17 04:30:15;;;;;;;2.75;1.40;;;;;;;;;;5072496;28;20048;-87
2024/01/17 04:32:45;;;;;;;6.65;1.63;;;;;;;;;;5073397;28;20052;-87
2024/01/17 04:35:21;;;;;;;2.97;1.50;;;;;;;;;;5072543;28;20052;-84
2024/01/17 04:37:53;;;;;;;3.22;1.17;;;;;;;;;;5074382;28;20045;-86
2024/01/17 04:40:23;;;;;;;5.18;1.67;;;;;;;;;;5073242;28;20053;-85
2024/01/17 04:42:54;;;;;;;6.75;1.92;;;;;;;;;;5072332;28;20056;-85
2024/01/17 04:45:24;;;;;;;4.25;1.40;;;;;;;;;;5071817;28;20517;-85
2024/01/17 04:47:57;;;;;;;7.90;1.70;;;;;;;;;;5072875;28;20048;-89
2024/01/17 04:50:29;;;;;;;5.63;2.05;;;;;;;;;;5072346;28;20055;-87
2024/01/17 04:53:01;;;;;;;6.32;1.45;;;;;;;;;;5072145;28;20517;-86
2024/01/17 04:55:33;;;;;;;6.90;1.50;;;;;;;;;;5074137;28;20040;-87
2024/01/17 04:58:04;;;;;;;6.78;1.85;;;;;;;;;;5071916;28;20407;-85
2024/01/17 05:00:34;;;;;;;5.28;1.52;;;;;;;;;;5072760;28;20049;-85
2024/01/17 05:03:05;;;;;;;7.43;1.60;;;;;;;;;;5072489;28;20060;-88
2024/01/17 05:05:37;;;;;;;2.63;1.33;;;;;;;;;;5074888;28;20048;-86
2024/01/17 05:08:07;;;;;;;6.88;1.65;;;;;;;;;;5076949;28;20052;-84
2024/01/17 05:10:47;;;;;;;4.78;1.80;;;;;;;;;;5076860;28;20056;-84
2024/01/17 05:13:18;;;;;;;3.63;1.45;;;;;;;;;;5092814;28;20059;-86
2024/01/17 05:15:48;;;;;;;7.40;1.88;;;;;;;;;;5094248;28;20048;-83
2024/01/17 05:18:18;;;;;;;6.78;2.15;;;;;;;;;;5093195;28;20047;-84
2024/01/17 05:20:50;;;;;;;6.95;2.30;;;;;;;;;;5094084;28;20051;-86
2024/01/17 05:23:21;;;;;;;7.55;2.17;;;;;;;;;;5093811;28;20048;-84
2024/01/17 05:25:50;;;;;;;7.63;1.92;;;;;;;;;;5078039;28;20052;-85
2024/01/17 05:28:22;;;;;;;12.55;2.13;;;;;;;;;;5094068;28;20047;-85
2024/01/17 05:30:52;;;;;;;4.65;1.80;;;;;;;;;;5093600;28;20063;-85
2024/01/17 05:33:22;;;;;;;5.70;1.60;;;;;;;;;;5075508;28;20044;-84
2024/01/17 05:35:55;;;;;;;6.85;1.60;;;;;;;;;;5093855;28;20063;-85
2024/01/17 05:38:28;;;;;;;6.10;1.85;;;;;;;;;;5074539;28;20383;-83
2024/01/17 05:40:58;;;;;;;5.30;1.58;;;;;;;;;;5094121;28;20048;-86
2024/01/17 05:43:29;;;;;;;4.85;1.65;;;;;;;;;;5075080;28;20059;-85
2024/01/17 05:46:02;;;;;;;6.32;1.77;;;;;;;;;;5058149;28;20517;-87
2024/01/17 05:48:32;;;;;;;3.95;1.33;;;;;;;;;;5058352;28;20510;-84
2024/01/17 05:51:03;;;;;;;3.00;1.20;;;;;;;;;;5092546;28;20048;-83
2024/01/17 05:53:34;;;;;;;5.07;1.70;;;;;;;;;;5093122;28;20063;-83
2024/01/17 05:56:05;;;;;;;2.83;1.55;;;;;;;;;;5092918;28;20055;-86
2024/01/17 05:58:36;;;;;;;2.80;1.15;;;;;;;;;;5073969;28;20449;-84
2024/01/17 06:01:06;;;;;;;3.65;1.05;;;;;;;;;;5093052;28;20513;-85
2024/01/17 06:03:36;;;;;;;1.25;0.63;;;;;;;;;;5092944;28;20044;-83
2024/01/17 06:06:07;;;;;;;0.80;0.32;;;;;;;;;;5058057;28;20055;-81
2024/01/17 06:08:39;;;;;;;1.05;0.35;;;;;;;;;;5093375;28;20051;-83
2024/01/17 06:11:12;;;;;;;0.43;0.20;;;;;;;;;;5093937;28;20040;-81
2024/01/17 06:13:42;;;;;;;0.17;0.17;;;;;;;;;;5093246;28;20059;-86
2024/01/17 06:16:12;;;;;;;0.17;0.10;;;;;;;;;;5058343;28;20052;-81
2024/01/17 06:18:42;;;;;;;0.50;0.20;;;;;;;;;;5074783;28;20048;-84
2024/01/17 06:21:12;;;;;;;0.63;0.20;;;;;;;;;;5074481;28;20501;-83
2024/01/17 06:23:44;;;;;;;3.13;0.20;;;;;;;;;;5076620;28;20055;-81
2024/01/17 06:26:14;;;;;;;0.50;0.20;;;;;;;;;;5079076;28;20062;-84
2024/01/17 06:28:44;;;;;;;1.02;0.20;;;;;;;;;;5077973;28;20174;-83
2024/01/17 06:31:25;;;;;;;0.28;0.28;;;;;;;;;;5079249;28;20062;-80
2024/01/17 06:33:56;;;;;;;1.02;0.28;;;;;;;;;;5077745;28;20349;-83
2024/01/17 06:36:26;;;;;;;0.45;0.13;;;;;;;;;;5061634;28;20052;-84
2024/01/17 06:38:57;;;;;;;0.82;0.30;;;;;;;;;;5077766;28;20108;-83
2024/01/17 06:41:27;;;;;;;0.75;0.20;;;;;;;;;;5079212;28;20056;-85
2024/01/17 06:43:57;;;;;;;1.55;0.20;;;;;;;;;;5061855;28;20130;-81
2024/01/17 06:46:28;;;;;;;0.88;0.22;;;;;;;;;;5096855;28;20044;-83
2024/01/17 06:48:58;;;;;;;0.82;0.15;;;;;;;;;;5078514;28;20044;-81
2024/01/17 06:51:29;;;;;;;1.95;0.40;;;;;;;;;;5094015;28;20048;-82
2024/01/17 06:53:59;;;;;;;0.63;0.20;;;;;;;;;;5060826;28;20044;-82
2024/01/17 06:56:29;;;;;;;1.67;0.30;;;;;;;;;;5096115;28;20040;-84
2024/01/17 06:58:59;;;;;;;1.15;0.20;;;;;;;;;;5073715;28;20044;-87
2024/01/17 07:01:29;;;;;;;0.93;0.32;;;;;;;;;;5073930;28;20483;-83
2024/01/17 07:04:00;;;;;;;1.45;0.20;;;;;;;;;;5057425;28;20055;-83
2024/01/17 07:06:30;;;;;;;1.23;0.30;;;;;;;;;;5074522;28;20518;-84
2024/01/17 07:09:00;;;;;;;0.20;0.15;;;;;;;;;;5069929;28;20051;-84
2024/01/17 07:11:32;;;;;;;1.05;0.20;;;;;;;;;;5058642;28;20044;-83
2024/01/17 07:14:03;;;;;;;1.27;0.20;;;;;;;;;;5076136;28;20040;-83
2024/01/17 07:16:33;;;;;;;1.70;0.40;;;;;;;;;;5058693;28;20048;-84
2024/01/17 07:19:04;;;;;;;0.70;0.22;;;;;;;;;;5074411;28;20045;-85
2024/01/17 07:21:37;;;;;;;5.28;0.22;;;;;;;;;;5074712;28;20056;-82
2024/01/17 07:24:07;;;;;;;0.60;0.20;;;;;;;;;;5073539;28;20072;-83
2024/01/17 07:26:37;;;;;;;2.20;0.10;;;;;;;;;;5057006;28;20049;-86
2024/01/17 07:29:08;;;;;;;0.60;0.32;;;;;;;;;;5087738;28;20044;-84
2024/01/17 07:31:38;;;;;;;0.50;0.10;;;;;;;;;;5074965;28;20055;-83
2024/01/17 07:34:08;;;;;;;1.88;0.22;;;;;;;;;;5090465;28;20044;-83
2024/01/17 07:36:38;;;;;;;0.57;0.20;;;;;;;;;;5073661;28;20045;-83
2024/01/17 07:39:10;;;;;;;0.80;0.20;;;;;;;;;;5072718;28;20063;-85
2024/01/17 07:41:41;;;;;;;1.10;0.22;;;;;;;;;;5073296;28;20056;-83
2024/01/17 07:44:12;;;;;;;0.60;0.20;;;;;;;;;;5073276;28;20053;-83
2024/01/17 07:46:42;;;;;;;1.95;0.30;;;;;;;;;;5075489;28;20040;-85
2024/01/17 07:49:12;;;;;;;2.22;0.22;;;;;;;;;;5075586;28;20044;-85
2024/01/17 07:51:43;;;;;;;3.00;0.20;;;;;;;;;;5072684;28;20044;-83
2024/01/17 07:54:13;;;;;;;2.08;0.20;;;;;;;;;;5073072;28;20052;-82
2024/01/17 07:56:43;;;;;;;0.22;0.13;;;;;;;;;;5074145;28;20190;-81
2024/01/17 07:59:14;;;;;;;0.55;0.20;;;;;;;;;;5089861;28;20040;-82
2024/01/17 08:01:45;;;;;;;2.45;0.20;;;;;;;;;;5095276;28;20044;-81
2024/01/17 08:04:17;;;;;;;0.98;0.15;;;;;;;;;;5060681;28;20486;-84
2024/01/17 08:06:47;;;;;;;0.55;0.10;;;;;;;;;;5060968;28;20040;-82
2024/01/17 08:09:20;;;;;;;1.75;0.13;;;;;;;;;;5078617;28;20497;-83
2024/01/17 08:11:56;;;;;;;1.27;0.20;;;;;;;;;;5102594;28;20040;-82
2024/01/17 08:14:26;;;;;;;0.10;0.10;;;;;;;;;;5103536;28;20074;-81
2024/01/17 08:16:56;;;;;;;2.00;0.22;;;;;;;;;;5103218;28;20059;-81
2024/01/17 08:19:26;;;;;;;0.77;0.20;;;;;;;;;;5104197;28;20060;-82
2024/01/17 08:21:57;;;;;;;3.13;0.20;;;;;;;;;;5077310;28;20390;-79
2024/01/17 08:24:27;;;;;;;0.63;0.20;;;;;;;;;;5095749;28;20067;-80
2024/01/17 08:26:58;;;;;;;0.20;0.17;;;;;;;;;;5095063;28;20509;-79
2024/01/17 08:29:28;;;;;;;0.63;0.20;;;;;;;;;;5077191;28;20471;-86
2024/01/17 08:31:58;;;;;;;0.73;0.20;;;;;;;;;;5094451;28;20044;-83
2024/01/17 08:34:29;;;;;;;3.08;0.20;;;;;;;;;;5095173;28;20048;-82
2024/01/17 08:37:00;;;;;;;2.63;0.13;;;;;;;;;;5063872;28;20059;-79
2024/01/17 08:39:36;;;;;;;2.45;0.30;;;;;;;;;;5075598;28;20051;-82
2024/01/17 08:42:09;;;;;;;4.30;0.32;;;;;;;;;;5076883;28;20040;-82
2024/01/17 08:44:43;;;;;;;0.43;0.20;;;;;;;;;;5094248;28;20052;-81
2024/01/17 08:47:13;;;;;;;0.95;0.20;;;;;;;;;;5094044;28;20047;-81
2024/01/17 08:49:43;;;;;;;0.57;0.20;;;;;;;;;;5075238;28;20048;-80
2024/01/17 08:52:13;;;;;;;0.20;0.10;;;;;;;;;;5094475;28;20055;-82
2024/01/17 08:54:44;;;;;;;1.33;0.15;;;;;;;;;;5094816;28;20044;-81
2024/01/17 08:57:15;;;;;;;0.45;0.20;;;;;;;;;;5075832;28;20052;-82
2024/01/17 08:59:46;;;;;;;1.63;0.20;;;;;;;;;;5075309;28;20056;-84
2024/01/17 09:02:16;;;;;;;1.67;0.20;;;;;;;;;;5093341;28;20402;-79
2024/01/17 09:04:46;;;;;;;3.67;0.20;;;;;;;;;;5093191;28;20048;-82
2024/01/17 09:07:17;;;;;;;0.50;0.20;;;;;;;;;;5093168;28;20059;-80
2024/01/17 09:09:50;;;;;;;0.63;0.20;;;;;;;;;;5093869;28;20051;-81
2024/01/17 09:12:20;;;;;;;0.95;0.10;;;;;;;;;;5074977;28;20055;-82
2024/01/17 09:14:50;;;;;;;0.55;0.20;;;;;;;;;;5074596;28;20110;-83
2024/01/17 09:17:20;;;;;;;0.17;0.08;;;;;;;;;;5093816;28;20047;-80
2024/01/17 09:19:49;;;;;;;2.65;0.20;;;;;;;;;;5093835;28;20478;-82
2024/01/17 09:22:20;;;;;;;2.03;0.10;;;;;;;;;;5075311;28;20052;-83
2024/01/17 09:24:50;;;;;;;0.20;0.10;;;;;;;;;;5075639;28;20048;-83
2024/01/17 09:27:20;;;;;;;2.97;0.30;;;;;;;;;;5058346;28;20104;-81
2024/01/17 09:29:50;;;;;;;1.23;0.20;;;;;;;;;;5093431;28;20048;-82
2024/01/17 09:32:20;;;;;;;6.45;0.70;;;;;;;;;;5076062;28;20048;-83
2024/01/17 09:34:51;;;;;;;0.88;0.10;;;;;;;;;;5093170;28;20044;-83
2024/01/17 09:37:21;;;;;;;1.70;0.20;;;;;;;;;;5092209;28;20048;-83
2024/01/17 09:39:51;;;;;;;3.53;0.30;;;;;;;;;;5093025;28;20047;-85
2024/01/17 09:42:21;;;;;;;0.93;0.10;;;;;;;;;;5063409;28;20072;-84
2024/01/17 09:44:51;;;;;;;0.98;0.20;;;;;;;;;;5074161;28;20052;-82
2024/01/17 09:47:22;;;;;;;1.58;0.10;;;;;;;;;;5090292;28;20036;-82
2024/01/17 09:49:52;;;;;;;0.70;0.10;;;;;;;;;;5078745;28;20043;-82
2024/01/17 09:52:23;;;;;;;0.30;0.22;;;;;;;;;;5077280;28;20054;-83
2024/01/17 09:54:53;;;;;;;1.30;0.10;;;;;;;;;;5059804;28;20035;-83
2024/01/17 09:57:25;;;;;;;2.97;0.15;;;;;;;;;;5094952;28;20492;-82
2024/01/17 10:00:06;;;;;;;1.58;0.15;;;;;;;;;;5117562;28;20036;-82
2024/01/17 10:02:38;;;;;;;2.60;0.22;;;;;;;;;;5117957;28;20035;-81
2024/01/17 10:05:11;;;;;;;0.40;0.10;;;;;;;;;;5089618;28;20391;-82
2024/01/17 10:07:45;;;;;;;0.40;0.10;;;;;;;;;;5092618;28;20051;-82
2024/01/17 10:10:14;;;;;;;0.55;0.10;;;;;;;;;;5096310;28;20036;-82
2024/01/17 10:12:45;;;;;;;2.00;0.10;;;;;;;;;;5107381;28;20054;-82
2024/01/17 10:15:16;;;;;;;1.70;0.20;;;;;;;;;;5104575;28;20417;-83
2024/01/17 10:17:46;;;;;;;0.60;0.30;;;;;;;;;;5083577;28;20122;-83
2024/01/17 10:20:21;;;;;;;1.00;0.20;;;;;;;;;;5066730;28;20052;-84
2024/01/17 10:22:54;;;;;;;0.45;0.10;;;;;;;;;;5078623;28;20044;-81
2024/01/17 10:25:24;;;;;;;1.90;0.25;;;;;;;;;;5094486;28;20056;-82
2024/01/17 10:27:56;;;;;;;1.75;0.10;;;;;;;;;;5096896;28;20044;-82
2024/01/17 10:30:27;;;;;;;0.80;0.10;;;;;;;;;;5076624;28;20056;-82
2024/01/17 10:32:58;;;;;;;0.40;0.15;;;;;;;;;;5096752;28;20048;-82
2024/01/17 10:35:30;;;;;;;3.53;0.30;;;;;;;;;;5096680;28;20048;-81
2024/01/17 10:38:00;;;;;;;0.73;0.15;;;;;;;;;;5079726;28;20036;-82
2024/01/17 10:40:30;;;;;;;0.40;0.15;;;;;;;;;;5080104;28;20055;-82
2024/01/17 10:43:10;;;;;;;0.20;0.10;;;;;;;;;;5098773;28;20051;-80
2024/01/17 10:45:44;;;;;;;1.67;0.10;;;;;;;;;;5097014;28;20422;-81
2024/01/17 10:48:15;;;;;;;0.50;0.10;;;;;;;;;;5079861;28;20056;-80
2024/01/17 10:50:46;;;;;;;1.48;0.10;;;;;;;;;;5116179;28;20058;-83
2024/01/17 10:53:18;;;;;;;0.40;0.40;;;;;;;;;;5100448;28;20052;-81
2024/01/17 10:55:50;;;;;;;2.08;0.25;;;;;;;;;;5099011;28;20063;-83
2024/01/17 10:58:22;;;;;;;1.75;0.57;;;;;;;;;;5115389;28;20494;-81
2024/01/17 11:00:53;;;;;;;1.10;0.20;;;;;;;;;;5095741;28;20051;-84
2024/01/17 11:03:28;;;;;;;2.67;0.20;;;;;;;;;;5112893;28;20542;-79
2024/01/17 11:06:00;;;;;;;0.95;0.10;;;;;;;;;;5077587;28;20048;-81
2024/01/17 11:08:32;;;;;;;0.63;0.20;;;;;;;;;;5095388;28;20043;-83
2024/01/17 11:11:04;;;;;;;1.48;0.40;;;;;;;;;;5077987;28;20055;-80
2024/01/17 11:13:37;;;;;;;0.93;0.28;;;;;;;;;;5077867;28;20051;-80
2024/01/17 11:16:07;;;;;;;0.65;0.20;;;;;;;;;;5085538;28;20040;-80
2024/01/17 11:18:41;;;;;;;1.15;0.20;;;;;;;;;;5074314;28;20439;-82
2024/01/17 11:21:13;;;;;;;1.55;0.20;;;;;;;;;;5058412;28;20045;-81
2024/01/17 11:24:01;;;;;;;1.00;0.20;;;;;;;;;;5076748;28;20044;-80
2024/01/17 11:26:43;;;;;;;1.88;0.30;;;;;;;;;;5075766;28;20045;-80
2024/01/17 11:29:35;;;;;;;1.92;0.30;;;;;;;;;;5074155;28;20494;-82
2024/01/17 11:32:32;;;;;;;1.50;0.38;;;;;;;;;;5058205;28;20047;-80
2024/01/17 11:35:04;;;;;;;1.60;0.40;;;;;;;;;;5057785;28;20036;-78
2024/01/17 11:37:34;;;;;;;3.15;1.20;;;;;;;;;;5060393;28;20053;-78
2024/01/17 11:40:08;;;;;;;2.03;0.70;;;;;;;;;;5083328;28;20048;-82
2024/01/17 11:42:38;;;;;;;2.90;1.58;;;;;;;;;;5056249;28;20049;-79
2024/01/17 11:45:09;;;;;;;2.55;0.73;;;;;;;;;;5074268;28;20067;-82
2024/01/17 11:47:52;;;;;;;1.48;0.40;;;;;;;;;;5074184;28;20399;-80
2024/01/17 11:50:24;;;;;;;1.42;0.40;;;;;;;;;;5056746;28;20048;-82
2024/01/17 11:52:56;;;;;;;1.42;0.40;;;;;;;;;;5077542;28;20051;-82
2024/01/17 11:55:31;;;;;;;2.05;1.15;;;;;;;;;;5075762;28;20071;-82
2024/01/17 11:58:01;;;;;;;2.20;0.35;;;;;;;;;;5063656;28;20081;-81
2024/01/17 12:00:31;;;;;;;1.02;0.52;;;;;;;;;;5083640;28;20052;-84
2024/01/17 12:03:03;;;;;;;2.20;0.30;;;;;;;;;;5080460;28;20454;-82
2024/01/17 12:05:38;;;;;;;0.80;0.32;;;;;;;;;;5083183;28;20052;-85
2024/01/17 12:08:09;;;;;;;0.32;0.22;;;;;;;;;;5080288;28;20062;-82
2024/01/17 12:10:42;;;;;;;0.28;0.13;;;;;;;;;;5112681;28;20513;-82
2024/01/17 12:13:12;;;;;;;1.45;0.30;;;;;;;;;;5095168;28;20039;-81
2024/01/17 12:15:43;;;;;;;0.70;0.28;;;;;;;;;;5112860;28;20067;-84
2024/01/17 12:18:24;;;;;;;2.35;0.32;;;;;;;;;;5077933;28;20047;-86
2024/01/17 12:20:55;;;;;;;1.63;0.40;;;;;;;;;;5112096;28;20051;-83
2024/01/17 12:23:27;;;;;;;4.50;0.77;;;;;;;;;;5095003;28;20048;-84
2024/01/17 12:25:59;;;;;;;1.08;0.35;;;;;;;;;;5093839;28;20055;-83
2024/01/17 12:28:30;;;;;;;1.67;0.50;;;;;;;;;;5105837;28;20047;-84
2024/01/17 12:31:08;;;;;;;1.13;0.40;;;;;;;;;;5075144;28;20052;-82
2024/01/17 12:33:39;;;;;;;1.33;0.47;;;;;;;;;;5093749;28;20044;-81
2024/01/17 12:36:12;;;;;;;1.45;0.50;;;;;;;;;;5077841;28;20055;-81
2024/01/17 12:38:42;;;;;;;8.10;1.98;;;;;;;;;;5075388;28;20055;-82
2024/01/17 12:41:15;;;;;;;5.38;0.70;;;;;;;;;;5095221;28;20044;-84
2024/01/17 12:43:47;;;;;;;2.95;0.60;;;;;;;;;;5075089;28;20051;-83
2024/01/17 12:46:18;;;;;;;;;;;;;;;;;;5076666;28;20056;-81
2024/01/17 12:48:56;;;;;;;2.15;0.70;;;;;;;;;;5094696;28;19924;-81
2024/01/17 12:51:27;;;;;;;4.43;0.55;;;;;;;;;;5075853;28;20059;-82
2024/01/17 12:53:58;;;;;;;3.53;0.32;;;;;;;;;;5093390;28;20067;-82
2024/01/17 12:56:29;;;;;;;0.80;0.40;;;;;;;;;;5092905;28;20048;-83
2024/01/17 12:58:59;;;;;;;1.98;0.50;;;;;;;;;;5093318;28;20056;-83
2024/01/17 13:01:31;;;;;;;4.30;0.90;;;;;;;;;;5092347;28;20044;-83
2024/01/17 13:04:05;;;;;;;3.08;0.85;;;;;;;;;;5075643;28;20051;-83
2024/01/17 13:06:58;;;;;;;2.22;0.63;;;;;;;;;;5057807;28;20044;-82
2024/01/17 13:09:32;;;;;;;2.63;0.60;;;;;;;;;;5074614;28;20052;-83
2024/01/17 13:12:05;;;;;;;1.65;0.60;;;;;;;;;;5075455;28;20502;-85
2024/01/17 13:14:35;;;;;;;2.50;0.50;;;;;;;;;;5092752;28;20507;-86
2024/01/17 13:17:15;;;;;;;2.05;0.60;;;;;;;;;;5092921;28;20044;-81
2024/01/17 13:19:45;;;;;;;2.08;0.80;;;;;;;;;;5092990;28;20051;-82
2024/01/17 13:22:18;;;;;;;2.67;0.75;;;;;;;;;;5092966;28;20048;-82
2024/01/17 13:24:49;;;;;;;5.35;1.10;;;;;;;;;;5092697;28;20394;-81
2024/01/17 13:27:20;;;;;;;;;;;;;;;;;;5075585;28;20048;-81
2024/01/17 13:29:51;;;;;;;2.47;0.90;;;;;;;;;;5092018;28;19920;-83
2024/01/17 13:32:21;;;;;;;2.22;0.70;;;;;;;;;;5074496;28;20052;-82
2024/01/17 13:34:52;;;;;;;5.25;0.60;;;;;;;;;;5092829;28;20040;-82
2024/01/17 13:37:23;;;;;;;1.58;0.30;;;;;;;;;;5075326;28;20039;-82
2024/01/17 13:39:53;;;;;;;1.92;0.43;;;;;;;;;;5078025;28;20048;-81
2024/01/17 13:42:23;;;;;;;2.33;0.50;;;;;;;;;;5070340;28;20064;-82
2024/01/17 13:44:53;;;;;;;0.73;0.32;;;;;;;;;;5052996;28;20056;-84
2024/01/17 13:47:24;;;;;;;1.67;0.40;;;;;;;;;;5071498;28;20056;-85
2024/01/17 13:49:59;;;;;;;2.83;0.30;;;;;;;;;;5108006;28;20048;-83
2024/01/17 13:52:33;;;;;;;3.75;0.30;;;;;;;;;;5110826;28;20528;-85
2024/01/17 13:55:04;;;;;;;1.50;0.45;;;;;;;;;;5111452;28;20043;-83
2024/01/17 13:57:37;;;;;;;3.42;0.50;;;;;;;;;;5090879;28;20596;-86
2024/01/17 14:00:09;;;;;;;2.47;0.52;;;;;;;;;;5090770;28;20048;-82
2024/01/17 14:02:42;;;;;;;;;;;;;;;;;;5074287;28;20040;-83
2024/01/17 14:05:13;;;;;;;2.40;0.30;;;;;;;;;;5074146;28;20283;-82
2024/01/17 14:07:43;;;;;;;0.95;0.22;;;;;;;;;;5074016;28;20074;-82
2024/01/17 14:10:14;;;;;;;3.20;0.60;;;;;;;;;;5096177;28;20048;-83
2024/01/17 14:12:45;;;;;;;2.65;0.30;;;;;;;;;;5075294;28;20056;-83
2024/01/17 14:15:19;;;;;;;1.50;0.40;;;;;;;;;;5074493;28;20043;-82
2024/01/17 14:17:49;;;;;;;6.88;0.52;;;;;;;;;;5071842;28;20047;-84
2024/01/17 14:20:19;;;;;;;8.23;0.50;;;;;;;;;;5074604;28;20517;-82
2024/01/17 14:22:53;;;;;;;3.13;0.73;;;;;;;;;;5093231;28;20055;-82
2024/01/17 14:25:24;;;;;;;3.25;1.25;;;;;;;;;;5074138;28;20059;-81
2024/01/17 14:27:54;;;;;;;1.60;0.70;;;;;;;;;;5092708;28;20052;-84
2024/01/17 14:30:24;;;;;;;1.25;0.40;;;;;;;;;;5093906;28;20814;-81
2024/01/17 14:32:54;;;;;;;1.52;0.70;;;;;;;;;;5092637;28;20052;-81
2024/01/17 14:35:24;;;;;;;3.05;0.40;;;;;;;;;;5075255;28;20446;-83
2024/01/17 14:37:55;;;;;;;1.33;0.43;;;;;;;;;;5073622;28;20059;-81
2024/01/17 14:40:25;;;;;;;2.72;0.50;;;;;;;;;;5074713;28;20051;-83
2024/01/17 14:42:55;;;;;;;0.88;0.30;;;;;;;;;;5091292;28;20052;-83
2024/01/17 14:45:25;;;;;;;0.95;0.30;;;;;;;;;;5061351;28;20138;-80
2024/01/17 14:47:56;;;;;;;3.78;0.40;;;;;;;;;;5076541;28;20445;-82
2024/01/17 14:50:27;;;;;;;3.38;0.35;;;;;;;;;;5078160;28;20047;-85
2024/01/17 14:52:58;;;;;;;3.00;0.60;;;;;;;;;;5076674;28;20048;-83
2024/01/17 14:55:28;;;;;;;2.80;0.30;;;;;;;;;;5078039;28;20044;-81
2024/01/17 14:57:58;;;;;;;2.60;0.50;;;;;;;;;;5094716;28;20048;-82
2024/01/17 15:00:28;;;;;;;6.65;0.40;;;;;;;;;;5094935;28;20406;-80
2024/01/17 15:02:59;;;;;;;2.58;0.70;;;;;;;;;;5095530;28;20048;-81
2024/01/17 15:05:29;;;;;;;1.98;0.20;;;;;;;;;;5076400;28;20058;-81
2024/01/17 15:08:00;;;;;;;1.58;0.40;;;;;;;;;;5078638;28;20058;-81